Time,TemperatureF,DewpointF,PressureIn,WindDirection,WindDirectionDegrees,WindSpeedMPH,WindSpeedGustMPH,Humidity,HourlyPrecipIn,Conditions,Clouds,dailyrainin,SoftwareType,DateUTC
2013-12-20 00:11:00,40.3,22.0,30.30,South,173,4.0,6.0,49,0.00,,,0.00,weatherlink.com 1.10,2013-12-20 05:11:00,
2013-12-20 00:26:00,40.4,22.0,30.29,South,169,4.0,8.0,49,0.00,,,0.00,weatherlink.com 1.10,2013-12-20 05:26:00,
2013-12-20 00:41:00,39.8,22.0,30.29,SSW,207,6.0,7.0,50,0.00,,,0.00,weatherlink.com 1.10,2013-12-20 05:41:00,
2013-12-20 00:56:00,40.0,23.0,30.28,South,182,5.0,8.0,50,0.00,,,0.00,weatherlink.com 1.10,2013-12-20 05:56:00,
2013-12-20 01:12:00,39.8,22.0,30.28,South,180,4.0,7.0,50,0.00,,,0.00,weatherlink.com 1.10,2013-12-20 06:12:00,
2013-12-20 01:27:00,39.5,23.0,30.28,South,176,4.0,8.0,51,0.00,,,0.00,weatherlink.com 1.10,2013-12-20 06:27:00,
2013-12-20 01:42:00,40.0,23.0,30.27,South,178,5.0,10.0,50,0.00,,,0.00,weatherlink.com 1.10,2013-12-20 06:42:00,
2013-12-20 01:57:00,40.1,23.0,30.28,ESE,119,5.0,8.0,50,0.00,,,0.00,weatherlink.com 1.10,2013-12-20 06:57:00,
2013-12-20 02:12:00,40.5,23.0,30.27,SSE,154,3.0,7.0,49,0.00,,,0.00,weatherlink.com 1.10,2013-12-20 07:12:00,
2013-12-20 02:27:00,40.8,22.0,30.28,SSE,155,2.0,7.0,48,0.00,,,0.00,weatherlink.com 1.10,2013-12-20 07:27:00,
2013-12-20 02:42:00,41.0,22.0,30.29,South,171,1.0,3.0,47,0.00,,,0.00,weatherlink.com 1.10,2013-12-20 07:42:00,
2013-12-20 02:57:00,40.4,22.0,30.29,SSE,157,3.0,3.0,48,0.00,,,0.00,weatherlink.com 1.10,2013-12-20 07:57:00,
2013-12-20 03:12:00,40.9,22.0,30.29,SSE,153,0.0,5.0,48,0.00,,,0.00,weatherlink.com 1.10,2013-12-20 08:12:00,
2013-12-20 03:27:00,40.5,23.0,30.28,South,169,3.0,5.0,49,0.00,,,0.00,weatherlink.com 1.10,2013-12-20 08:27:00,
2013-12-20 03:42:00,39.6,23.0,30.28,SSE,155,4.0,5.0,51,0.00,,,0.00,weatherlink.com 1.10,2013-12-20 08:42:00,
2013-12-20 03:58:00,40.0,23.0,30.28,SSE,155,1.0,6.0,50,0.00,,,0.00,weatherlink.com 1.10,2013-12-20 08:58:00,
2013-12-20 04:12:00,41.3,23.0,30.28,ESE,119,4.0,7.0,48,0.00,,,0.00,weatherlink.com 1.10,2013-12-20 09:12:00,
2013-12-20 04:27:00,41.3,23.0,30.29,SSE,157,0.0,4.0,48,0.00,,,0.00,weatherlink.com 1.10,2013-12-20 09:27:00,
2013-12-20 04:42:00,40.7,22.0,30.29,NNE,19,0.0,6.0,48,0.00,,,0.00,weatherlink.com 1.10,2013-12-20 09:42:00,
2013-12-20 04:57:00,42.7,21.0,30.29,NNE,22,1.0,3.0,42,0.00,,,0.00,weatherlink.com 1.10,2013-12-20 09:57:00,
2013-12-20 05:12:00,43.9,20.0,30.29,ESE,111,3.0,7.0,39,0.00,,,0.00,weatherlink.com 1.10,2013-12-20 10:12:00,
2013-12-20 05:27:00,44.7,20.0,30.29,SE,130,1.0,7.0,37,0.00,,,0.00,weatherlink.com 1.10,2013-12-20 10:27:00,
2013-12-20 05:42:00,44.1,20.0,30.28,SSE,167,2.0,4.0,39,0.00,,,0.00,weatherlink.com 1.10,2013-12-20 10:42:00,
2013-12-20 05:57:00,43.3,21.0,30.28,SE,146,0.0,5.0,41,0.00,,,0.00,weatherlink.com 1.10,2013-12-20 10:57:00,
2013-12-20 06:12:00,43.2,21.0,30.29,ESE,123,0.0,4.0,41,0.00,,,0.00,weatherlink.com 1.10,2013-12-20 11:12:00,
2013-12-20 06:27:00,42.8,20.0,30.29,SE,124,2.0,3.0,40,0.00,,,0.00,weatherlink.com 1.10,2013-12-20 11:27:00,
2013-12-20 06:42:00,43.1,20.0,30.29,SE,130,1.0,3.0,40,0.00,,,0.00,weatherlink.com 1.10,2013-12-20 11:42:00,
2013-12-20 06:57:00,42.4,20.0,30.29,ENE,62,1.0,3.0,41,0.00,,,0.00,weatherlink.com 1.10,2013-12-20 11:57:00,
2013-12-20 07:12:00,42.6,19.0,30.29,ESE,113,1.0,3.0,39,0.00,,,0.00,weatherlink.com 1.10,2013-12-20 12:12:00,
2013-12-20 07:27:00,43.0,19.0,30.29,SE,124,0.0,3.0,39,0.00,,,0.00,weatherlink.com 1.10,2013-12-20 12:27:00,
2013-12-20 07:42:00,42.7,19.0,30.30,SE,124,0.0,2.0,39,0.00,,,0.00,weatherlink.com 1.10,2013-12-20 12:42:00,
2013-12-20 07:57:00,42.4,19.0,30.30,ESE,107,2.0,3.0,40,0.00,,,0.00,weatherlink.com 1.10,2013-12-20 12:57:00,
2013-12-20 08:12:00,42.2,19.0,30.30,ENE,75,2.0,4.0,39,0.00,,,0.00,weatherlink.com 1.10,2013-12-20 13:12:00,
2013-12-20 08:27:00,43.4,19.0,30.31,ENE,75,1.0,2.0,37,0.00,,,0.00,weatherlink.com 1.10,2013-12-20 13:27:00,
2013-12-20 08:42:00,44.4,19.0,30.31,ESE,117,0.0,3.0,36,0.00,,,0.00,weatherlink.com 1.10,2013-12-20 13:42:00,
2013-12-20 08:57:00,44.8,19.0,30.31,ESE,117,0.0,1.0,36,0.00,,,0.00,weatherlink.com 1.10,2013-12-20 13:57:00,
2013-12-20 09:12:00,44.7,20.0,30.31,ESE,121,1.0,3.0,38,0.00,,,0.00,weatherlink.com 1.10,2013-12-20 14:12:00,
2013-12-20 09:27:00,44.8,22.0,30.31,SSW,200,1.0,3.0,40,0.00,,,0.00,weatherlink.com 1.10,2013-12-20 14:27:00,
2013-12-20 09:42:00,45.5,22.0,30.30,South,178,2.0,3.0,40,0.00,,,0.00,weatherlink.com 1.10,2013-12-20 14:42:00,
2013-12-20 09:57:00,46.5,24.0,30.31,SSE,155,2.0,4.0,41,0.00,,,0.00,weatherlink.com 1.10,2013-12-20 14:57:00,
2013-12-20 10:12:00,46.1,22.0,30.31,SE,134,2.0,4.0,38,0.00,,,0.00,weatherlink.com 1.10,2013-12-20 15:12:00,
2013-12-20 10:27:00,46.2,22.0,30.32,SSE,157,1.0,5.0,39,0.00,,,0.00,weatherlink.com 1.10,2013-12-20 15:27:00,
2013-12-20 10:42:00,46.3,24.0,30.31,South,188,5.0,5.0,41,0.00,,,0.00,weatherlink.com 1.10,2013-12-20 15:42:00,
2013-12-20 10:57:00,46.8,22.0,30.32,South,169,0.0,4.0,38,0.00,,,0.00,weatherlink.com 1.10,2013-12-20 15:57:00,
2013-12-20 11:12:00,47.7,23.0,30.30,East,99,0.0,7.0,38,0.00,,,0.00,weatherlink.com 1.10,2013-12-20 16:12:00,
2013-12-20 11:27:00,50.3,23.0,30.30,ESE,109,1.0,7.0,35,0.00,,,0.00,weatherlink.com 1.10,2013-12-20 16:27:00,
2013-12-20 11:42:00,50.7,24.0,30.30,East,93,0.0,7.0,35,0.00,,,0.00,weatherlink.com 1.10,2013-12-20 16:42:00,
2013-12-20 11:57:00,51.4,27.0,30.30,South,186,5.0,5.0,39,0.00,,,0.00,weatherlink.com 1.10,2013-12-20 16:57:00,
2013-12-20 12:13:00,53.7,26.0,30.29,SSE,162,5.0,7.0,35,0.00,,,0.00,weatherlink.com 1.10,2013-12-20 17:13:00,
2013-12-20 12:28:00,52.7,28.0,30.28,SSE,167,4.0,9.0,38,0.00,,,0.00,weatherlink.com 1.10,2013-12-20 17:28:00,
2013-12-20 12:43:00,52.7,27.0,30.27,SSE,159,2.0,7.0,37,0.00,,,0.00,weatherlink.com 1.10,2013-12-20 17:43:00,
2013-12-20 12:58:00,53.2,27.0,30.27,SSE,157,3.0,8.0,37,0.00,,,0.00,weatherlink.com 1.10,2013-12-20 17:58:00,
2013-12-20 13:12:00,53.1,29.0,30.27,South,189,6.0,8.0,39,0.00,,,0.00,weatherlink.com 1.10,2013-12-20 18:12:00,
2013-12-20 13:27:00,54.8,29.0,30.25,SSE,149,2.0,6.0,37,0.00,,,0.00,weatherlink.com 1.10,2013-12-20 18:27:00,
2013-12-20 13:43:00,55.3,29.0,30.25,SSE,158,4.0,8.0,37,0.00,,,0.00,weatherlink.com 1.10,2013-12-20 18:43:00,
2013-12-20 13:58:00,54.8,32.0,30.25,SSE,164,3.0,10.0,42,0.00,,,0.00,weatherlink.com 1.10,2013-12-20 18:58:00,
2013-12-20 14:13:00,53.3,32.0,30.25,SSE,161,5.0,8.0,44,0.00,,,0.00,weatherlink.com 1.10,2013-12-20 19:13:00,
2013-12-20 14:28:00,53.0,33.0,30.25,ESE,122,3.0,9.0,47,0.00,,,0.00,weatherlink.com 1.10,2013-12-20 19:28:00,
2013-12-20 14:43:00,53.3,33.0,30.25,SE,135,3.0,8.0,47,0.00,,,0.00,weatherlink.com 1.10,2013-12-20 19:43:00,
2013-12-20 14:58:00,53.9,34.0,30.26,SE,137,1.0,8.0,48,0.00,,,0.00,weatherlink.com 1.10,2013-12-20 19:58:00,
2013-12-20 15:13:00,54.3,36.0,30.25,SSE,149,4.0,8.0,50,0.00,,,0.00,weatherlink.com 1.10,2013-12-20 20:13:00,
2013-12-20 15:28:00,54.1,35.0,30.26,SSW,205,0.0,6.0,48,0.00,,,0.00,weatherlink.com 1.10,2013-12-20 20:28:00,
2013-12-20 15:43:00,53.1,35.0,30.25,SE,136,4.0,6.0,51,0.00,,,0.00,weatherlink.com 1.10,2013-12-20 20:43:00,
2013-12-20 15:58:00,53.4,36.0,30.26,South,182,3.0,8.0,52,0.00,,,0.00,weatherlink.com 1.10,2013-12-20 20:58:00,
2013-12-20 16:13:00,53.1,36.0,30.27,SE,146,2.0,5.0,53,0.00,,,0.00,weatherlink.com 1.10,2013-12-20 21:13:00,
2013-12-20 16:28:00,51.5,36.0,30.27,SE,144,1.0,4.0,56,0.00,,,0.00,weatherlink.com 1.10,2013-12-20 21:28:00,
2013-12-20 16:43:00,50.7,37.0,30.27,SSW,193,4.0,5.0,59,0.00,,,0.00,weatherlink.com 1.10,2013-12-20 21:43:00,
2013-12-20 16:58:00,49.6,36.0,30.26,SSE,165,0.0,4.0,61,0.00,,,0.00,weatherlink.com 1.10,2013-12-20 21:58:00,
2013-12-20 17:13:00,48.5,36.0,30.26,SSE,167,1.0,4.0,63,0.00,,,0.00,weatherlink.com 1.10,2013-12-20 22:13:00,
2013-12-20 17:28:00,48.0,36.0,30.26,SSE,165,2.0,5.0,64,0.00,,,0.00,weatherlink.com 1.10,2013-12-20 22:28:00,
2013-12-20 17:43:00,47.8,36.0,30.26,South,178,4.0,7.0,64,0.00,,,0.00,weatherlink.com 1.10,2013-12-20 22:43:00,
2013-12-20 17:58:00,47.8,36.0,30.27,SE,124,5.0,8.0,63,0.00,,,0.00,weatherlink.com 1.10,2013-12-20 22:58:00,
2013-12-20 18:12:00,48.2,36.0,30.27,ESE,121,8.0,9.0,62,0.00,,,0.00,weatherlink.com 1.10,2013-12-20 23:12:00,
2013-12-20 18:27:00,48.0,35.0,30.27,SE,138,1.0,5.0,62,0.00,,,0.00,weatherlink.com 1.10,2013-12-20 23:27:00,
2013-12-20 18:42:00,47.6,35.0,30.27,SE,142,3.0,5.0,63,0.00,,,0.00,weatherlink.com 1.10,2013-12-20 23:42:00,
2013-12-20 18:58:00,47.4,36.0,30.27,South,171,4.0,7.0,64,0.00,,,0.00,weatherlink.com 1.10,2013-12-20 23:58:00,
2013-12-20 19:13:00,47.0,35.0,30.27,SSE,148,3.0,7.0,64,0.00,,,0.00,weatherlink.com 1.10,2013-12-21 00:13:00,
2013-12-20 19:28:00,46.7,36.0,30.27,South,169,5.0,7.0,66,0.00,,,0.00,weatherlink.com 1.10,2013-12-21 00:28:00,
2013-12-20 19:43:00,46.7,36.0,30.27,ESE,121,4.0,8.0,66,0.00,,,0.00,weatherlink.com 1.10,2013-12-21 00:43:00,
2013-12-20 19:58:00,46.9,36.0,30.27,ESE,115,1.0,6.0,65,0.00,,,0.00,weatherlink.com 1.10,2013-12-21 00:58:00,
2013-12-20 20:12:00,46.9,36.0,30.28,SE,142,1.0,5.0,66,0.00,,,0.00,weatherlink.com 1.10,2013-12-21 01:12:00,
2013-12-20 20:27:00,46.3,36.0,30.27,NE,42,3.0,6.0,67,0.00,,,0.00,weatherlink.com 1.10,2013-12-21 01:27:00,
2013-12-20 20:43:00,45.8,35.0,30.28,East,83,0.0,3.0,67,0.00,,,0.00,weatherlink.com 1.10,2013-12-21 01:43:00,
2013-12-20 20:58:00,46.1,35.0,30.29,East,83,0.0,1.0,66,0.00,,,0.00,weatherlink.com 1.10,2013-12-21 01:58:00,
2013-12-20 21:13:00,46.8,35.0,30.28,East,92,3.0,6.0,65,0.00,,,0.00,weatherlink.com 1.10,2013-12-21 02:13:00,
2013-12-20 21:28:00,47.3,35.0,30.27,ESE,111,2.0,7.0,63,0.00,,,0.00,weatherlink.com 1.10,2013-12-21 02:28:00,
2013-12-20 21:43:00,47.4,36.0,30.27,South,172,1.0,4.0,64,0.00,,,0.00,weatherlink.com 1.10,2013-12-21 02:43:00,
2013-12-20 21:58:00,47.0,36.0,30.27,South,187,5.0,8.0,65,0.00,,,0.00,weatherlink.com 1.10,2013-12-21 02:58:00,
2013-12-20 22:13:00,47.0,36.0,30.27,SSE,159,0.0,6.0,65,0.00,,,0.00,weatherlink.com 1.10,2013-12-21 03:13:00,
2013-12-20 22:28:00,47.4,35.0,30.27,SSE,157,3.0,3.0,63,0.00,,,0.00,weatherlink.com 1.10,2013-12-21 03:28:00,
2013-12-20 22:43:00,47.4,35.0,30.26,SSE,150,3.0,6.0,63,0.00,,,0.00,weatherlink.com 1.10,2013-12-21 03:43:00,
2013-12-20 22:58:00,47.3,36.0,30.26,SSE,154,2.0,6.0,65,0.00,,,0.00,weatherlink.com 1.10,2013-12-21 03:58:00,
2013-12-20 23:14:00,47.1,36.0,30.26,SSE,159,2.0,6.0,65,0.00,,,0.00,weatherlink.com 1.10,2013-12-21 04:14:00,
2013-12-20 23:29:00,46.4,36.0,30.26,South,172,3.0,5.0,66,0.00,,,0.00,weatherlink.com 1.10,2013-12-21 04:29:00,
2013-12-20 23:44:00,46.1,36.0,30.26,South,181,2.0,7.0,67,0.00,,,0.00,weatherlink.com 1.10,2013-12-21 04:44:00,
2013-12-20 23:59:00,46.7,36.0,30.26,SE,146,2.0,4.0,66,0.00,,,0.00,weatherlink.com 1.10,2013-12-21 04:59:00,